createdAt,value
2016-08-24T00:00:08.415Z,0
2016-08-24T00:00:32.571Z,0
2016-08-24T00:00:56.716Z,0
2016-08-24T00:01:20.852Z,0
2016-08-24T00:01:45.001Z,0
2016-08-24T00:02:09.162Z,0
2016-08-24T00:02:33.300Z,0
2016-08-24T00:02:57.527Z,0
2016-08-24T00:03:21.858Z,0
2016-08-24T00:03:46.094Z,0
2016-08-24T00:04:10.200Z,0
2016-08-24T00:04:34.332Z,0
2016-08-24T00:04:58.458Z,0
2016-08-24T00:05:22.576Z,0
2016-08-24T00:05:46.709Z,0
2016-08-24T00:06:10.841Z,0
2016-08-24T00:06:34.964Z,0
2016-08-24T00:06:59.118Z,0
2016-08-24T00:07:23.237Z,0
2016-08-24T00:07:47.403Z,0
2016-08-24T00:08:11.544Z,0
2016-08-24T00:08:35.708Z,0
2016-08-24T00:08:59.851Z,0
2016-08-24T00:09:23.987Z,0
2016-08-24T00:09:48.120Z,0
2016-08-24T00:10:12.260Z,0
2016-08-24T00:10:36.408Z,0
2016-08-24T00:11:00.534Z,0
2016-08-24T00:11:24.740Z,0
2016-08-24T00:11:48.858Z,0
2016-08-24T00:12:13.043Z,0
2016-08-24T00:12:37.195Z,0
2016-08-24T00:13:01.326Z,0
2016-08-24T00:13:25.423Z,0
2016-08-24T00:13:49.547Z,0
2016-08-24T00:14:13.694Z,0
2016-08-24T00:14:37.836Z,0
2016-08-24T00:15:01.989Z,0
2016-08-24T00:15:26.175Z,0
2016-08-24T00:15:50.345Z,0
2016-08-24T00:16:14.475Z,0
2016-08-24T00:16:38.595Z,0
2016-08-24T00:17:02.736Z,0
2016-08-24T00:17:26.851Z,0
2016-08-24T00:17:50.972Z,0
2016-08-24T00:18:15.078Z,0
2016-08-24T00:18:39.184Z,0
2016-08-24T00:19:03.342Z,0
2016-08-24T00:19:27.485Z,0
2016-08-24T00:19:51.610Z,0
2016-08-24T00:20:15.736Z,0
2016-08-24T00:20:39.876Z,0
2016-08-24T00:21:04.003Z,0
2016-08-24T00:21:28.128Z,0
2016-08-24T00:21:52.233Z,0
2016-08-24T00:22:16.338Z,0
2016-08-24T00:22:40.461Z,0
2016-08-24T00:23:04.593Z,0
2016-08-24T00:23:28.717Z,0
2016-08-24T00:23:52.856Z,0
2016-08-24T00:24:16.964Z,0
2016-08-24T00:24:41.114Z,0
2016-08-24T00:25:05.256Z,0
2016-08-24T00:25:29.385Z,0
2016-08-24T00:25:53.475Z,0
2016-08-24T00:26:17.613Z,0
2016-08-24T00:26:41.756Z,0
2016-08-24T00:27:05.898Z,0
2016-08-24T00:27:29.995Z,0
2016-08-24T00:27:54.180Z,0
2016-08-24T00:28:18.316Z,0
2016-08-24T00:28:42.453Z,0
2016-08-24T00:29:06.576Z,0
2016-08-24T00:29:30.685Z,0
2016-08-24T00:29:54.859Z,0
2016-08-24T00:30:18.969Z,0
2016-08-24T00:30:43.065Z,0
2016-08-24T00:31:07.215Z,0
2016-08-24T00:31:31.343Z,0
2016-08-24T00:31:55.478Z,0
2016-08-24T00:32:19.622Z,0
2016-08-24T00:32:43.759Z,0
2016-08-24T00:33:07.899Z,0
2016-08-24T00:33:32.012Z,0
2016-08-24T00:33:56.132Z,0
2016-08-24T00:34:20.263Z,0
2016-08-24T00:34:44.389Z,0
2016-08-24T00:35:08.579Z,0
2016-08-24T00:35:32.694Z,0
2016-08-24T00:35:56.834Z,0
2016-08-24T00:36:20.963Z,0
2016-08-24T00:36:45.059Z,0
2016-08-24T00:37:09.167Z,0
2016-08-24T00:37:33.299Z,0
2016-08-24T00:37:57.436Z,0
2016-08-24T00:38:21.548Z,0
2016-08-24T00:38:45.679Z,0
2016-08-24T00:39:09.831Z,0
2016-08-24T00:39:33.956Z,0
2016-08-24T00:39:58.074Z,0
2016-08-24T00:40:22.186Z,0
2016-08-24T00:40:46.326Z,0
2016-08-24T00:41:10.452Z,0
2016-08-24T00:41:34.563Z,0
2016-08-24T00:41:58.698Z,0
2016-08-24T00:42:22.823Z,0
2016-08-24T00:42:46.980Z,0
2016-08-24T00:43:11.118Z,0
2016-08-24T00:43:35.279Z,0
2016-08-24T00:43:59.395Z,0
2016-08-24T00:44:23.513Z,0
2016-08-24T00:44:47.622Z,0
2016-08-24T00:45:11.747Z,0
2016-08-24T00:45:35.883Z,0
2016-08-24T00:46:00.025Z,0
2016-08-24T00:46:24.153Z,0
2016-08-24T00:46:48.341Z,0
2016-08-24T00:47:12.486Z,0
2016-08-24T00:47:36.610Z,0
2016-08-24T00:48:00.762Z,0
2016-08-24T00:48:24.898Z,0
2016-08-24T00:48:49.034Z,0
2016-08-24T00:49:13.155Z,0
2016-08-24T00:49:37.269Z,0
2016-08-24T00:50:01.380Z,0
2016-08-24T00:50:25.515Z,0
2016-08-24T00:50:49.624Z,0
2016-08-24T00:51:13.739Z,0
2016-08-24T00:51:37.873Z,0
2016-08-24T00:52:02.003Z,0
2016-08-24T00:52:26.138Z,0
2016-08-24T00:52:50.269Z,0
2016-08-24T00:53:14.406Z,0
2016-08-24T00:53:38.538Z,0
2016-08-24T00:54:02.673Z,0
2016-08-24T00:54:26.810Z,0
2016-08-24T00:54:50.962Z,0
2016-08-24T00:55:15.092Z,0
2016-08-24T00:55:39.227Z,0
2016-08-24T00:56:03.365Z,0
2016-08-24T00:56:27.530Z,0
2016-08-24T00:56:51.676Z,0
2016-08-24T00:57:15.793Z,0
2016-08-24T00:57:39.954Z,0
2016-08-24T00:58:04.089Z,0
2016-08-24T00:58:28.230Z,0
2016-08-24T00:58:52.352Z,0
2016-08-24T00:59:16.472Z,0
2016-08-24T00:59:40.636Z,0
2016-08-24T01:00:04.758Z,0
2016-08-24T01:00:28.898Z,0
2016-08-24T01:00:53.045Z,0
2016-08-24T01:01:17.183Z,0
2016-08-24T01:01:41.309Z,0
2016-08-24T01:02:05.456Z,0
2016-08-24T01:02:29.602Z,0
2016-08-24T01:02:53.734Z,0
2016-08-24T01:03:17.851Z,0
2016-08-24T01:03:41.984Z,0
2016-08-24T01:04:06.129Z,0
2016-08-24T01:04:30.263Z,0
2016-08-24T01:04:54.383Z,0
2016-08-24T01:05:18.533Z,0
2016-08-24T01:05:42.678Z,0
2016-08-24T01:06:06.792Z,0
2016-08-24T01:06:30.945Z,0
2016-08-24T01:06:55.060Z,0
2016-08-24T01:07:19.189Z,0
2016-08-24T01:07:43.308Z,0
2016-08-24T01:08:07.435Z,0
2016-08-24T01:08:31.583Z,0
2016-08-24T01:08:55.717Z,0
2016-08-24T01:09:19.834Z,0
2016-08-24T01:09:44.086Z,0
2016-08-24T01:10:08.259Z,0
2016-08-24T01:10:32.413Z,0
2016-08-24T01:10:56.528Z,0
2016-08-24T01:11:20.653Z,0
2016-08-24T01:11:44.783Z,0
2016-08-24T01:12:08.943Z,0
2016-08-24T01:12:33.062Z,0
2016-08-24T01:12:57.202Z,0
2016-08-24T01:13:21.340Z,0
2016-08-24T01:13:45.466Z,0
2016-08-24T01:14:09.603Z,0
2016-08-24T01:14:33.755Z,0
2016-08-24T01:14:57.888Z,0
2016-08-24T01:15:22.014Z,0
2016-08-24T01:15:46.130Z,0
2016-08-24T01:16:10.258Z,0
2016-08-24T01:16:34.404Z,0
2016-08-24T01:16:58.543Z,0
2016-08-24T01:17:22.675Z,0
2016-08-24T01:17:46.795Z,0
2016-08-24T01:18:10.933Z,0
2016-08-24T01:18:35.055Z,0
2016-08-24T01:18:59.171Z,0
2016-08-24T01:19:23.322Z,0
2016-08-24T01:19:47.431Z,0
2016-08-24T01:20:11.559Z,0
2016-08-24T01:20:35.677Z,0
2016-08-24T01:20:59.822Z,0
2016-08-24T01:21:23.962Z,0
2016-08-24T01:21:48.084Z,0
2016-08-24T01:22:12.193Z,0
2016-08-24T01:22:36.322Z,0
2016-08-24T01:23:00.466Z,0
2016-08-24T01:23:24.588Z,0
2016-08-24T01:23:48.703Z,0
2016-08-24T01:24:12.828Z,0
2016-08-24T01:24:36.962Z,0
2016-08-24T01:25:01.073Z,0
2016-08-24T01:25:25.194Z,0
2016-08-24T01:25:49.328Z,0
2016-08-24T01:26:13.438Z,0
2016-08-24T01:26:37.586Z,0
2016-08-24T01:27:01.709Z,0
2016-08-24T01:27:25.827Z,0
2016-08-24T01:27:49.975Z,0
2016-08-24T01:28:14.111Z,0
2016-08-24T01:28:38.250Z,0
2016-08-24T01:29:02.367Z,0
2016-08-24T01:29:26.498Z,0
2016-08-24T01:29:50.629Z,0
2016-08-24T01:30:14.757Z,0
2016-08-24T01:30:38.882Z,0
2016-08-24T01:31:03.032Z,0
2016-08-24T01:31:27.165Z,0
2016-08-24T01:31:51.255Z,0
2016-08-24T01:32:15.380Z,0
2016-08-24T01:32:39.523Z,0
2016-08-24T01:33:03.670Z,0
2016-08-24T01:33:27.784Z,0
2016-08-24T01:33:51.922Z,0
2016-08-24T01:34:16.066Z,0
2016-08-24T01:34:40.191Z,0
2016-08-24T01:35:04.321Z,0
2016-08-24T01:35:28.458Z,0
2016-08-24T01:35:52.590Z,0
2016-08-24T01:36:16.717Z,0
2016-08-24T01:36:40.859Z,0
2016-08-24T01:37:04.974Z,0
2016-08-24T01:37:29.111Z,0
2016-08-24T01:37:53.237Z,0
2016-08-24T01:38:17.380Z,0
2016-08-24T01:38:41.525Z,0
2016-08-24T01:39:05.690Z,0
2016-08-24T01:39:29.818Z,0
2016-08-24T01:39:53.934Z,0
2016-08-24T01:40:18.059Z,0
2016-08-24T01:40:42.167Z,0
2016-08-24T01:41:06.286Z,0
2016-08-24T01:41:30.436Z,0
2016-08-24T01:41:54.590Z,0
2016-08-24T01:42:18.731Z,0
2016-08-24T01:42:42.848Z,0
2016-08-24T01:43:06.976Z,0
2016-08-24T01:43:31.125Z,0
2016-08-24T01:43:55.254Z,0
2016-08-24T01:44:19.417Z,0
2016-08-24T01:44:43.572Z,0
2016-08-24T01:45:07.689Z,0
2016-08-24T01:45:31.796Z,0
2016-08-24T01:45:55.924Z,0
2016-08-24T01:46:20.045Z,0
2016-08-24T01:46:44.176Z,0
2016-08-24T01:47:08.316Z,0
2016-08-24T01:47:32.441Z,0
2016-08-24T01:47:56.587Z,0
2016-08-24T01:48:20.754Z,0
2016-08-24T01:48:44.884Z,0
2016-08-24T01:49:09.017Z,0
2016-08-24T01:49:33.144Z,0
2016-08-24T01:49:57.274Z,0
2016-08-24T01:50:21.395Z,0
2016-08-24T01:50:45.512Z,0
2016-08-24T01:51:09.692Z,0
2016-08-24T01:51:33.804Z,0
2016-08-24T01:51:57.913Z,0
2016-08-24T01:52:22.067Z,0
2016-08-24T01:52:46.204Z,0
2016-08-24T01:53:10.348Z,0
2016-08-24T01:53:34.464Z,0
2016-08-24T01:53:58.603Z,0
2016-08-24T01:54:22.738Z,0
2016-08-24T01:54:46.871Z,0
2016-08-24T01:55:10.985Z,0
2016-08-24T01:55:35.120Z,0
2016-08-24T01:55:59.253Z,0
2016-08-24T01:56:23.397Z,0
2016-08-24T01:56:47.517Z,0
2016-08-24T01:57:11.639Z,0
2016-08-24T01:57:35.794Z,0
2016-08-24T01:57:59.908Z,0
2016-08-24T01:58:24.049Z,0
2016-08-24T01:58:48.162Z,0
2016-08-24T01:59:12.315Z,0
2016-08-24T01:59:36.441Z,0
2016-08-24T02:00:00.575Z,0
2016-08-24T02:00:24.697Z,0
2016-08-24T02:00:48.855Z,0
2016-08-24T02:01:13.023Z,0
2016-08-24T02:01:37.127Z,0
2016-08-24T02:02:01.258Z,0
2016-08-24T02:02:25.406Z,0
2016-08-24T02:02:49.529Z,0
2016-08-24T02:03:13.651Z,0
2016-08-24T02:03:37.790Z,0
2016-08-24T02:04:01.916Z,0
2016-08-24T02:04:26.030Z,0
2016-08-24T02:04:50.149Z,0
2016-08-24T02:05:14.299Z,0
2016-08-24T02:05:38.418Z,0
2016-08-24T02:06:02.517Z,0
2016-08-24T02:06:26.667Z,0
2016-08-24T02:06:50.797Z,0
2016-08-24T02:07:14.965Z,0
2016-08-24T02:07:39.079Z,0
2016-08-24T02:08:03.217Z,0
2016-08-24T02:08:27.352Z,0
2016-08-24T02:08:51.442Z,0
2016-08-24T02:09:15.557Z,0
2016-08-24T02:09:39.689Z,0
2016-08-24T02:10:03.946Z,0
2016-08-24T02:10:28.064Z,0
2016-08-24T02:10:52.205Z,0
2016-08-24T02:11:16.329Z,0
2016-08-24T02:11:40.474Z,0
2016-08-24T02:12:04.593Z,0
2016-08-24T02:12:28.715Z,0
2016-08-24T02:12:52.839Z,0
2016-08-24T02:13:16.967Z,0
2016-08-24T02:13:41.098Z,0
2016-08-24T02:14:05.255Z,0
2016-08-24T02:14:29.390Z,0
2016-08-24T02:14:53.530Z,0
2016-08-24T02:15:17.627Z,0
2016-08-24T02:15:41.744Z,0
2016-08-24T02:16:05.859Z,0
2016-08-24T02:16:29.996Z,0
2016-08-24T02:16:54.107Z,0
2016-08-24T02:17:18.236Z,0
2016-08-24T02:17:42.389Z,0
2016-08-24T02:18:06.514Z,0
2016-08-24T02:18:30.662Z,0
2016-08-24T02:18:54.795Z,0
2016-08-24T02:19:18.942Z,0
2016-08-24T02:19:43.105Z,0
2016-08-24T02:20:07.228Z,0
2016-08-24T02:20:31.370Z,0
2016-08-24T02:20:55.498Z,0
2016-08-24T02:21:19.607Z,0
2016-08-24T02:21:43.732Z,0
2016-08-24T02:22:07.861Z,0
2016-08-24T02:22:31.982Z,0
2016-08-24T02:22:56.108Z,0
2016-08-24T02:23:20.240Z,0
2016-08-24T02:23:44.388Z,0
2016-08-24T02:24:08.531Z,0
2016-08-24T02:24:32.658Z,0
2016-08-24T02:24:56.781Z,0
2016-08-24T02:25:20.904Z,0
2016-08-24T02:25:45.045Z,0
2016-08-24T02:26:09.148Z,0
2016-08-24T02:26:33.284Z,0
2016-08-24T02:26:57.413Z,0
2016-08-24T02:27:21.524Z,0
2016-08-24T02:27:45.643Z,0
2016-08-24T02:28:09.747Z,0
2016-08-24T02:28:33.921Z,0
2016-08-24T02:28:58.057Z,0
2016-08-24T02:29:22.212Z,0
2016-08-24T02:29:46.345Z,0
2016-08-24T02:30:10.487Z,0
2016-08-24T02:30:34.668Z,0
2016-08-24T02:30:58.819Z,0
2016-08-24T02:31:22.961Z,0
2016-08-24T02:31:47.092Z,0
2016-08-24T02:32:11.208Z,0
2016-08-24T02:32:35.331Z,0
2016-08-24T02:32:59.439Z,0
2016-08-24T02:33:23.574Z,0
2016-08-24T02:33:47.688Z,0
2016-08-24T02:34:11.800Z,0
2016-08-24T02:34:35.928Z,0
2016-08-24T02:35:00.079Z,0
2016-08-24T02:35:24.190Z,0
2016-08-24T02:35:48.327Z,0
2016-08-24T02:36:12.489Z,0
2016-08-24T02:36:36.628Z,0
2016-08-24T02:37:00.740Z,0
2016-08-24T02:37:24.874Z,0
2016-08-24T02:37:49.008Z,0
2016-08-24T02:38:13.115Z,0
2016-08-24T02:38:37.238Z,0
2016-08-24T02:39:01.363Z,0
2016-08-24T02:39:25.491Z,0
2016-08-24T02:39:49.605Z,0
2016-08-24T02:40:13.753Z,0
2016-08-24T02:40:37.889Z,0
2016-08-24T02:41:02.017Z,0
2016-08-24T02:41:26.142Z,0
2016-08-24T02:41:50.251Z,0
2016-08-24T02:42:14.411Z,0
2016-08-24T02:42:38.596Z,0
2016-08-24T02:43:02.732Z,0
2016-08-24T02:43:26.857Z,0
2016-08-24T02:43:51.055Z,0
2016-08-24T02:44:15.186Z,0
2016-08-24T02:44:39.318Z,0
2016-08-24T02:45:03.435Z,0
2016-08-24T02:45:27.589Z,0
2016-08-24T02:45:51.713Z,0
2016-08-24T02:46:15.849Z,0
2016-08-24T02:46:40.001Z,0
2016-08-24T02:47:04.134Z,0
2016-08-24T02:47:28.280Z,0
2016-08-24T02:47:52.392Z,0
2016-08-24T02:48:16.526Z,0
2016-08-24T02:48:40.666Z,0
2016-08-24T02:49:04.823Z,0
2016-08-24T02:49:28.940Z,0
2016-08-24T02:49:53.049Z,0
2016-08-24T02:50:17.179Z,0
2016-08-24T02:50:41.307Z,0
2016-08-24T02:51:05.424Z,0
2016-08-24T02:51:29.559Z,0
2016-08-24T02:51:53.705Z,0
2016-08-24T02:52:17.832Z,0
2016-08-24T02:52:41.981Z,0
2016-08-24T02:53:06.100Z,0
2016-08-24T02:53:30.227Z,0
2016-08-24T02:53:54.350Z,0
2016-08-24T02:54:18.473Z,0
2016-08-24T02:54:42.604Z,0
2016-08-24T02:55:06.734Z,0
2016-08-24T02:55:30.877Z,0
2016-08-24T02:55:55.028Z,0
2016-08-24T02:56:19.151Z,0
2016-08-24T02:56:43.275Z,0
2016-08-24T02:57:07.414Z,0
2016-08-24T02:57:31.573Z,0
2016-08-24T02:57:55.700Z,0
2016-08-24T02:58:19.834Z,0
2016-08-24T02:58:43.959Z,0
2016-08-24T02:59:08.068Z,0
2016-08-24T02:59:32.241Z,0
2016-08-24T02:59:56.362Z,0
2016-08-24T03:00:20.516Z,0
2016-08-24T03:00:44.662Z,0
2016-08-24T03:01:08.826Z,0
2016-08-24T03:01:32.969Z,0
2016-08-24T03:01:57.079Z,0
2016-08-24T03:02:21.238Z,0
2016-08-24T03:02:45.380Z,0
2016-08-24T03:03:09.511Z,0
2016-08-24T03:03:33.648Z,0
2016-08-24T03:03:57.791Z,0
2016-08-24T03:04:21.915Z,0
2016-08-24T03:04:46.028Z,0
2016-08-24T03:05:10.152Z,0
2016-08-24T03:05:34.292Z,0
2016-08-24T03:05:58.399Z,0
2016-08-24T03:06:22.506Z,0
2016-08-24T03:06:46.643Z,0
2016-08-24T03:07:10.788Z,0
2016-08-24T03:07:34.878Z,0
2016-08-24T03:07:59.031Z,0
2016-08-24T03:08:23.406Z,0
2016-08-24T03:08:47.512Z,0
2016-08-24T03:09:11.635Z,0
2016-08-24T03:09:35.736Z,0
2016-08-24T03:09:59.877Z,0
2016-08-24T03:10:24.013Z,0
2016-08-24T03:10:48.138Z,0
2016-08-24T03:11:12.269Z,0
2016-08-24T03:11:36.414Z,0
2016-08-24T03:12:00.512Z,0
2016-08-24T03:12:24.666Z,0
2016-08-24T03:12:48.807Z,0
2016-08-24T03:13:12.936Z,0
2016-08-24T03:13:37.053Z,0
2016-08-24T03:14:01.184Z,0
2016-08-24T03:14:25.322Z,0
2016-08-24T03:14:49.460Z,0
2016-08-24T03:15:13.591Z,0
2016-08-24T03:15:37.704Z,0
2016-08-24T03:16:01.829Z,0
2016-08-24T03:16:25.963Z,0
2016-08-24T03:16:50.080Z,0
2016-08-24T03:17:14.208Z,0
2016-08-24T03:17:38.357Z,0
2016-08-24T03:18:02.692Z,0
2016-08-24T03:18:26.893Z,0
2016-08-24T03:18:51.049Z,0
2016-08-24T03:19:15.166Z,0
2016-08-24T03:19:39.283Z,0
2016-08-24T03:20:03.395Z,0
2016-08-24T03:20:27.537Z,0
2016-08-24T03:20:51.663Z,0
2016-08-24T03:21:15.785Z,0
2016-08-24T03:21:39.937Z,0
2016-08-24T03:22:04.068Z,0
2016-08-24T03:22:28.195Z,0
2016-08-24T03:22:52.368Z,0
2016-08-24T03:23:16.514Z,0
2016-08-24T03:23:40.646Z,0
2016-08-24T03:24:04.749Z,0
2016-08-24T03:24:28.867Z,0
2016-08-24T03:24:52.984Z,0
2016-08-24T03:25:17.109Z,0
2016-08-24T03:25:41.237Z,0
2016-08-24T03:26:05.373Z,0
2016-08-24T03:26:29.533Z,0
2016-08-24T03:26:53.647Z,0
2016-08-24T03:27:17.775Z,0
2016-08-24T03:27:41.906Z,0
2016-08-24T03:28:06.025Z,0
2016-08-24T03:28:30.135Z,4
2016-08-24T03:28:54.277Z,4
2016-08-24T03:29:18.446Z,4
2016-08-24T03:29:42.556Z,4
2016-08-24T03:30:06.669Z,4
2016-08-24T03:30:30.831Z,0
2016-08-24T03:30:54.965Z,0
2016-08-24T03:31:19.089Z,0
2016-08-24T03:31:43.209Z,4
2016-08-24T03:32:07.326Z,4
2016-08-24T03:32:31.467Z,4
2016-08-24T03:32:55.607Z,4
2016-08-24T03:33:19.727Z,0
2016-08-24T03:33:43.857Z,4
2016-08-24T03:34:07.994Z,4
2016-08-24T03:34:32.159Z,4
2016-08-24T03:34:56.295Z,4
2016-08-24T03:35:20.429Z,4
2016-08-24T03:35:44.568Z,4
2016-08-24T03:36:08.705Z,8
2016-08-24T03:36:32.851Z,4
2016-08-24T03:36:56.988Z,8
2016-08-24T03:37:21.095Z,8
2016-08-24T03:37:45.220Z,8
2016-08-24T03:38:09.376Z,8
2016-08-24T03:38:34.307Z,8
2016-08-24T03:38:58.430Z,8
2016-08-24T03:39:22.586Z,8
2016-08-24T03:39:46.728Z,12
2016-08-24T03:40:10.860Z,8
2016-08-24T03:40:34.981Z,12
2016-08-24T03:40:59.127Z,12
2016-08-24T03:41:23.260Z,12
2016-08-24T03:41:47.380Z,16
2016-08-24T03:42:11.522Z,16
2016-08-24T03:42:35.658Z,16
2016-08-24T03:42:59.803Z,16
2016-08-24T03:43:23.911Z,20
2016-08-24T03:43:48.047Z,20
2016-08-24T03:44:12.173Z,20
2016-08-24T03:44:36.325Z,24
2016-08-24T03:45:00.476Z,24
2016-08-24T03:45:24.593Z,24
2016-08-24T03:45:48.732Z,28
2016-08-24T03:46:12.853Z,28
2016-08-24T03:46:36.979Z,32
2016-08-24T03:47:01.099Z,32
2016-08-24T03:47:25.248Z,36
2016-08-24T03:47:49.367Z,36
2016-08-24T03:48:13.508Z,36
2016-08-24T03:48:37.670Z,40
2016-08-24T03:49:01.794Z,40
2016-08-24T03:49:25.942Z,48
2016-08-24T03:49:50.080Z,48
2016-08-24T03:50:14.210Z,52
2016-08-24T03:50:38.295Z,56
2016-08-24T03:51:02.432Z,56
2016-08-24T03:51:26.562Z,64
2016-08-24T03:51:50.686Z,64
2016-08-24T03:52:14.797Z,68
2016-08-24T03:52:38.940Z,72
2016-08-24T03:53:03.090Z,76
2016-08-24T03:53:27.205Z,80
2016-08-24T03:53:51.311Z,84
2016-08-24T03:54:15.457Z,88
2016-08-24T03:54:39.600Z,96
2016-08-24T03:55:03.719Z,96
2016-08-24T03:55:27.913Z,104
2016-08-24T03:55:52.045Z,108
2016-08-24T03:56:16.172Z,112
2016-08-24T03:56:40.300Z,120
2016-08-24T03:57:04.438Z,120
2016-08-24T03:57:28.581Z,128
2016-08-24T03:57:52.713Z,132
2016-08-24T03:58:16.811Z,144
2016-08-24T03:58:40.990Z,148
2016-08-24T03:59:05.129Z,152
2016-08-24T03:59:29.248Z,160
2016-08-24T03:59:53.388Z,164
2016-08-24T04:00:17.520Z,176
2016-08-24T04:00:41.644Z,184
2016-08-24T04:01:05.773Z,192
2016-08-24T04:01:29.902Z,196
2016-08-24T04:01:54.031Z,204
2016-08-24T04:02:18.137Z,212
2016-08-24T04:02:42.267Z,216
2016-08-24T04:03:06.396Z,228
2016-08-24T04:03:30.541Z,236
2016-08-24T04:03:54.700Z,244
2016-08-24T04:04:18.837Z,256
2016-08-24T04:04:42.994Z,264
2016-08-24T04:05:07.129Z,272
2016-08-24T04:05:31.250Z,280
2016-08-24T04:05:55.402Z,292
2016-08-24T04:06:19.532Z,300
2016-08-24T04:06:43.694Z,312
2016-08-24T04:07:07.797Z,320
2016-08-24T04:07:31.908Z,332
2016-08-24T04:07:56.033Z,340
2016-08-24T04:08:20.198Z,352
2016-08-24T04:08:44.327Z,364
2016-08-24T04:09:08.439Z,376
2016-08-24T04:09:32.566Z,384
2016-08-24T04:09:56.752Z,396
2016-08-24T04:10:20.908Z,408
2016-08-24T04:10:45.032Z,420
2016-08-24T04:11:09.182Z,428
2016-08-24T04:11:33.325Z,440
2016-08-24T04:11:57.475Z,452
2016-08-24T04:12:21.645Z,464
2016-08-24T04:12:45.755Z,476
2016-08-24T04:13:09.909Z,488
2016-08-24T04:13:34.056Z,500
2016-08-24T04:13:58.202Z,512
2016-08-24T04:14:22.333Z,528
2016-08-24T04:14:46.443Z,540
2016-08-24T04:15:10.575Z,552
2016-08-24T04:15:34.702Z,564
2016-08-24T04:15:58.824Z,576
2016-08-24T04:16:22.961Z,588
2016-08-24T04:16:47.099Z,604
2016-08-24T04:17:11.266Z,616
2016-08-24T04:17:35.371Z,628
2016-08-24T04:17:59.506Z,644
2016-08-24T04:18:23.663Z,656
2016-08-24T04:18:47.789Z,672
2016-08-24T04:19:11.923Z,684
2016-08-24T04:19:36.081Z,700
2016-08-24T04:20:00.242Z,716
2016-08-24T04:20:24.386Z,732
2016-08-24T04:20:48.504Z,744
2016-08-24T04:21:12.635Z,760
2016-08-24T04:21:36.775Z,776
2016-08-24T04:22:00.887Z,788
2016-08-24T04:22:25.007Z,804
2016-08-24T04:22:49.144Z,820
2016-08-24T04:23:13.269Z,836
2016-08-24T04:23:37.401Z,852
2016-08-24T04:24:01.515Z,860
2016-08-24T04:24:25.644Z,876
2016-08-24T04:24:49.787Z,892
2016-08-24T04:25:13.898Z,908
2016-08-24T04:25:38.023Z,920
2016-08-24T04:26:02.140Z,936
2016-08-24T04:26:26.298Z,952
2016-08-24T04:26:50.422Z,964
2016-08-24T04:27:14.542Z,980
2016-08-24T04:27:38.676Z,996
2016-08-24T04:28:02.820Z,1012
2016-08-24T04:28:26.952Z,1028
2016-08-24T04:28:51.100Z,1044
2016-08-24T04:29:15.259Z,1060
2016-08-24T04:29:39.384Z,1076
2016-08-24T04:30:03.493Z,1092
2016-08-24T04:30:27.617Z,1104
2016-08-24T04:30:51.757Z,1120
2016-08-24T04:31:15.867Z,1136
2016-08-24T04:31:40.000Z,1148
2016-08-24T04:32:04.149Z,1168
2016-08-24T04:32:28.294Z,1184
2016-08-24T04:32:52.423Z,1196
2016-08-24T04:33:16.566Z,1212
2016-08-24T04:33:40.709Z,1232
2016-08-24T04:34:04.843Z,1248
2016-08-24T04:34:28.971Z,1268
2016-08-24T04:34:53.144Z,1284
2016-08-24T04:35:17.269Z,1304
2016-08-24T04:35:41.449Z,1320
2016-08-24T04:36:05.647Z,1344
2016-08-24T04:36:29.757Z,1356
2016-08-24T04:36:53.891Z,1376
2016-08-24T04:37:18.049Z,1392
2016-08-24T04:37:42.169Z,1408
2016-08-24T04:38:06.304Z,1420
2016-08-24T04:38:30.428Z,1436
2016-08-24T04:38:54.550Z,1452
2016-08-24T04:39:18.690Z,1472
2016-08-24T04:39:42.840Z,1484
2016-08-24T04:40:06.993Z,1500
2016-08-24T04:40:31.144Z,1516
2016-08-24T04:40:55.260Z,1532
2016-08-24T04:41:19.462Z,1548
2016-08-24T04:41:43.585Z,1564
2016-08-24T04:42:07.681Z,1576
2016-08-24T04:42:31.816Z,1596
2016-08-24T04:42:55.987Z,1608
2016-08-24T04:43:20.132Z,1624
2016-08-24T04:43:44.242Z,1640
2016-08-24T04:44:08.420Z,1656
2016-08-24T04:44:32.564Z,1668
2016-08-24T04:44:56.725Z,1684
2016-08-24T04:45:20.891Z,1700
2016-08-24T04:45:45.024Z,1712
2016-08-24T04:46:09.158Z,1724
2016-08-24T04:46:33.301Z,1736
2016-08-24T04:46:57.421Z,1748
2016-08-24T04:47:21.551Z,1764
2016-08-24T04:47:45.693Z,1776
2016-08-24T04:48:09.845Z,1784
2016-08-24T04:48:33.955Z,1800
2016-08-24T04:48:58.100Z,1812
2016-08-24T04:49:22.229Z,1824
2016-08-24T04:49:46.363Z,1836
2016-08-24T04:50:10.507Z,1852
2016-08-24T04:50:34.711Z,1864
2016-08-24T04:50:58.857Z,1876
2016-08-24T04:51:22.990Z,1892
2016-08-24T04:51:47.131Z,1908
2016-08-24T04:52:11.276Z,1916
2016-08-24T04:52:35.423Z,1928
2016-08-24T04:52:59.558Z,1944
2016-08-24T04:53:23.676Z,1968
2016-08-24T04:53:47.812Z,1984
2016-08-24T04:54:11.951Z,2000
2016-08-24T04:54:36.107Z,2008
2016-08-24T04:55:00.228Z,2020
2016-08-24T04:55:24.371Z,2020
2016-08-24T04:55:48.501Z,2024
2016-08-24T04:56:12.653Z,2036
2016-08-24T04:56:36.768Z,2048
2016-08-24T04:57:00.895Z,2060
2016-08-24T04:57:25.004Z,2068
2016-08-24T04:57:49.134Z,2080
2016-08-24T04:58:13.288Z,2092
2016-08-24T04:58:37.409Z,2100
2016-08-24T04:59:01.532Z,2112
2016-08-24T04:59:25.696Z,2120
2016-08-24T04:59:49.832Z,2128
2016-08-24T05:00:13.970Z,2140
2016-08-24T05:00:38.087Z,2152
2016-08-24T05:01:02.208Z,2164
2016-08-24T05:01:26.348Z,2176
2016-08-24T05:01:50.488Z,2184
2016-08-24T05:02:14.594Z,2196
2016-08-24T05:02:38.755Z,2208
2016-08-24T05:03:02.885Z,2220
2016-08-24T05:03:27.026Z,2232
2016-08-24T05:03:51.160Z,2244
2016-08-24T05:04:15.316Z,2256
2016-08-24T05:04:39.443Z,2272
2016-08-24T05:05:03.559Z,2280
2016-08-24T05:05:27.685Z,2300
2016-08-24T05:05:51.849Z,2308
2016-08-24T05:06:16.006Z,2324
2016-08-24T05:06:40.119Z,2336
2016-08-24T05:07:04.256Z,2348
2016-08-24T05:07:28.418Z,2360
2016-08-24T05:07:52.548Z,2376
2016-08-24T05:08:16.645Z,2384
2016-08-24T05:08:40.773Z,2396
2016-08-24T05:09:04.921Z,2408
2016-08-24T05:09:29.076Z,2416
2016-08-24T05:09:53.230Z,2432
2016-08-24T05:10:17.391Z,2444
2016-08-24T05:10:41.536Z,2452
2016-08-24T05:11:05.693Z,2460
2016-08-24T05:11:29.821Z,2468
2016-08-24T05:11:53.977Z,2476
2016-08-24T05:12:18.093Z,2488
2016-08-24T05:12:42.226Z,2492
2016-08-24T05:13:06.375Z,2504
2016-08-24T05:13:30.524Z,2508
2016-08-24T05:13:54.693Z,2516
2016-08-24T05:14:18.807Z,2524
2016-08-24T05:14:42.930Z,2528
2016-08-24T05:15:07.091Z,2540
2016-08-24T05:15:31.225Z,2548
2016-08-24T05:15:55.347Z,2556
2016-08-24T05:16:19.466Z,2568
2016-08-24T05:16:43.588Z,2576
2016-08-24T05:17:07.708Z,2588
2016-08-24T05:17:31.849Z,2596
2016-08-24T05:17:56.014Z,2608
2016-08-24T05:18:20.150Z,2620
2016-08-24T05:18:44.267Z,2632
2016-08-24T05:19:08.389Z,2648
2016-08-24T05:19:32.534Z,2664
2016-08-24T05:19:56.658Z,2672
2016-08-24T05:20:20.794Z,2684
2016-08-24T05:20:44.925Z,2692
2016-08-24T05:21:09.076Z,2700
2016-08-24T05:21:33.213Z,2712
2016-08-24T05:21:57.341Z,2720
2016-08-24T05:22:21.477Z,2728
2016-08-24T05:22:45.637Z,2736
2016-08-24T05:23:09.762Z,2744
2016-08-24T05:23:33.883Z,2748
2016-08-24T05:23:58.032Z,2756
2016-08-24T05:24:22.164Z,2760
2016-08-24T05:24:46.315Z,2768
2016-08-24T05:25:10.462Z,2776
2016-08-24T05:25:34.593Z,2784
2016-08-24T05:25:58.727Z,2788
2016-08-24T05:26:22.874Z,2796
2016-08-24T05:26:47.016Z,2804
2016-08-24T05:27:11.207Z,2808
2016-08-24T05:27:35.317Z,2812
2016-08-24T05:27:59.455Z,2824
2016-08-24T05:28:23.682Z,2828
2016-08-24T05:28:47.806Z,2836
2016-08-24T05:29:11.915Z,2844
2016-08-24T05:29:36.037Z,2852
2016-08-24T05:30:00.183Z,2856
2016-08-24T05:30:24.306Z,2860
2016-08-24T05:30:48.440Z,2864
2016-08-24T05:31:12.589Z,2872
2016-08-24T05:31:36.729Z,2876
2016-08-24T05:32:00.844Z,2888
2016-08-24T05:32:24.999Z,2908
2016-08-24T05:32:49.135Z,2932
2016-08-24T05:33:13.274Z,2948
2016-08-24T05:33:37.424Z,2968
2016-08-24T05:34:01.595Z,2976
2016-08-24T05:34:25.748Z,2964
2016-08-24T05:34:49.856Z,2948
2016-08-24T05:35:14.019Z,2944
2016-08-24T05:35:38.173Z,2940
2016-08-24T05:36:02.329Z,2936
2016-08-24T05:36:26.455Z,2944
2016-08-24T05:36:50.603Z,2944
2016-08-24T05:37:14.740Z,2952
2016-08-24T05:37:38.888Z,2956
2016-08-24T05:38:03.018Z,2968
2016-08-24T05:38:27.147Z,2976
2016-08-24T05:38:51.268Z,2984
2016-08-24T05:39:15.396Z,2992
2016-08-24T05:39:39.516Z,3000
2016-08-24T05:40:03.672Z,3008
2016-08-24T05:40:27.806Z,3020
2016-08-24T05:40:51.941Z,3024
2016-08-24T05:41:16.065Z,3032
2016-08-24T05:41:40.198Z,3040
2016-08-24T05:42:04.317Z,3044
2016-08-24T05:42:28.466Z,3048
2016-08-24T05:42:52.563Z,3056
2016-08-24T05:43:16.753Z,3060
2016-08-24T05:43:40.903Z,3060
2016-08-24T05:44:05.020Z,3068
2016-08-24T05:44:29.149Z,3072
2016-08-24T05:44:53.304Z,3080
2016-08-24T05:45:17.434Z,3084